Time;durP1;ratioP1;P1;durP2;ratioP2;P2;SDS_P1;SDS_P2;PMS_P1;PMS_P2;Temp;Humidity;BMP_temperature;BMP_pressure;BME280_temperature;BME280_humidity;BME280_pressure;Samples;Min_cycle;Max_cycle;Signal;HPM_P1;HPM_P2
2022/01/08 00:01:09;;;;;;;;;;;;;;;2.58;50.78;100157.19;1697615;83;21201;-76
2022/01/08 00:03:33;;;;;;;;;;;;;;;2.65;51.13;100152.38;1698414;81;20111;-80
2022/01/08 00:05:59;;;;;;;;;;;;;;;2.80;50.75;100148.72;1705741;83;20178;-77
2022/01/08 00:08:24;;;;;;;;;;;;;;;2.84;50.78;100143.67;1701552;83;20110;-79
2022/01/08 00:10:52;;;;;;;;;;;;;;;2.91;50.55;100136.72;1701131;83;20610;-77
2022/01/08 00:13:18;;;;;;;;;;;;;;;2.57;51.31;100131.23;1697396;82;21196;-81
2022/01/08 00:15:43;;;;;;;;;;;;;;;2.55;51.24;100129.17;1701408;83;20181;-77
2022/01/08 00:18:09;;;;;;;;;;;;;;;2.75;51.46;100130.41;1699503;81;20142;-78
2022/01/08 00:20:35;;;;;;;;;;;;;;;2.50;51.51;100136.86;1703824;83;20191;-77
2022/01/08 00:23:01;;;;;;;;;;;;;;;2.39;51.43;100126.80;1705444;83;20657;-77
2022/01/08 00:25:27;;;;;;;;;;;;;;;2.45;51.54;100131.11;1702158;82;21152;-79
2022/01/08 00:27:53;;;;;;;;;;;;;;;2.78;51.13;100119.32;1701635;83;20250;-83
2022/01/08 00:30:18;;;;;;;;;;;;;;;2.85;50.51;100124.45;1709770;83;21049;-77
2022/01/08 00:32:44;;;;;;;;;;;;;;;2.60;51.33;100122.72;1699733;83;20194;-77
2022/01/08 00:35:10;;;;;;;;;;;;;;;2.71;51.73;100116.77;1703141;83;20166;-77
2022/01/08 00:37:37;;;;;;;;;;;;;;;2.69;51.65;100119.95;1700089;83;21218;-77
2022/01/08 00:40:06;;;;;;;;;;;;;;;2.76;50.71;100119.88;1698246;83;20202;-80
2022/01/08 00:42:32;;;;;;;;;;;;;;;2.74;50.92;100117.86;1698519;83;20233;-78
2022/01/08 00:44:58;;;;;;;;;;;;;;;2.58;51.43;100117.23;1701296;82;20447;-80
2022/01/08 00:47:23;;;;;;;;;;;;;;;2.55;51.56;100122.66;1701109;83;20177;-78
2022/01/08 00:49:49;;;;;;;;;;;;;;;2.67;51.08;100119.20;1702535;83;21078;-78
2022/01/08 00:52:14;;;;;;;;;;;;;;;2.70;51.20;100120.30;1705448;83;20152;-77
2022/01/08 00:54:40;;;;;;;;;;;;;;;2.64;51.29;100118.97;1702907;82;21496;-78
2022/01/08 00:57:06;;;;;;;;;;;;;;;2.62;51.54;100110.88;1700159;83;20245;-83
2022/01/08 00:59:32;;;;;;;;;;;;;;;2.65;51.54;100110.67;1709233;83;20470;-80
2022/01/08 01:01:57;;;;;;;;;;;;;;;2.83;51.57;100104.66;1701365;83;22593;-79
2022/01/08 01:04:23;;;;;;;;;;;;;;;2.61;51.54;100110.51;1706398;82;20134;-78
2022/01/08 01:06:48;;;;;;;;;;;;;;;2.59;51.56;100101.48;1702111;83;20166;-80
2022/01/08 01:09:14;;;;;;;;;;;;;;;2.61;51.75;100101.38;1699976;83;20607;-82
2022/01/08 01:11:40;;;;;;;;;;;;;;;2.92;51.34;100097.94;1701774;83;20335;-77
2022/01/08 01:14:06;;;;;;;;;;;;;;;2.66;51.68;100101.92;1701725;83;22141;-78
2022/01/08 01:16:32;;;;;;;;;;;;;;;2.86;51.55;100097.44;1705454;82;20114;-78
2022/01/08 01:18:59;;;;;;;;;;;;;;;2.38;51.77;100101.20;1709213;83;20261;-77
2022/01/08 01:21:24;;;;;;;;;;;;;;;2.30;52.55;100095.66;1701422;81;21040;-83
2022/01/08 01:23:51;;;;;;;;;;;;;;;2.40;52.41;100090.68;1704456;82;20642;-78
2022/01/08 01:26:21;;;;;;;;;;;;;;;2.73;51.73;100083.59;1708810;83;22692;-81
2022/01/08 01:47:12;;;;;;;;;;;;;;;1.94;52.62;100036.02;1700429;83;20187;-79
2022/01/08 01:49:42;;;;;;;;;;;;;;;1.95;52.90;100052.02;1702339;83;20184;-83
2022/01/08 01:52:10;;;;;;;;;;;;;;;1.83;53.36;100043.24;1703560;82;21245;-80
2022/01/08 01:54:36;;;;;;;;;;;;;;;1.79;53.54;100042.62;1700353;82;20495;-78
2022/01/08 01:57:02;;;;;;;;;;;;;;;1.76;53.60;100038.92;1703371;82;20309;-79
2022/01/08 01:59:28;;;;;;;;;;;;;;;1.64;53.85;100041.03;1704572;83;20191;-78
2022/01/08 02:01:54;;;;;;;;;;;;;;;1.60;53.86;100040.41;1700911;83;20171;-79
2022/01/08 02:04:20;;;;;;;;;;;;;;;1.62;53.86;100036.41;1703194;83;21043;-77
2022/01/08 02:06:45;;;;;;;;;;;;;;;1.66;54.03;100033.95;1707082;83;20688;-78
2022/01/08 02:09:11;;;;;;;;;;;;;;;1.73;53.99;100034.39;1706636;83;20139;-79
2022/01/08 02:12:10;;;;;;;;;;;;;;;1.92;53.22;100036.59;1703082;82;20126;-77
2022/01/08 02:14:36;;;;;;;;;;;;;;;1.90;53.09;100041.91;1704707;83;20204;-78
2022/01/08 02:17:06;;;;;;;;;;;;;;;1.95;53.04;100042.42;1704429;83;21335;-77
2022/01/08 02:19:32;;;;;;;;;;;;;;;1.90;53.17;100039.78;1703017;82;20186;-79
2022/01/08 02:21:59;;;;;;;;;;;;;;;1.89;53.31;100040.23;1702464;83;20124;-77
2022/01/08 02:24:25;;;;;;;;;;;;;;;1.91;53.41;100032.31;1699031;82;20536;-82
2022/01/08 02:26:51;;;;;;;;;;;;;;;1.81;53.24;100031.28;1702807;82;20262;-79
2022/01/08 02:29:18;;;;;;;;;;;;;;;1.77;53.33;100037.14;1708187;81;21098;-79
2022/01/08 02:31:57;;;;;;;;;;;;;;;1.81;53.31;100032.59;1700595;83;20192;-80
2022/01/08 02:34:24;;;;;;;;;;;;;;;1.75;53.47;100025.53;1699485;83;20893;-79
2022/01/08 02:36:50;;;;;;;;;;;;;;;1.67;53.24;100017.41;1699542;83;20176;-78
2022/01/08 02:39:16;;;;;;;;;;;;;;;2.15;52.76;100016.32;1701875;83;20732;-79
2022/01/08 02:41:41;;;;;;;;;;;;;;;2.16;52.72;100021.08;1706269;82;21365;-83
2022/01/08 02:44:07;;;;;;;;;;;;;;;2.21;52.33;100023.37;1697822;83;20146;-82
2022/01/08 02:46:33;;;;;;;;;;;;;;;1.76;53.14;100013.37;1702459;81;20157;-79
2022/01/08 02:48:58;;;;;;;;;;;;;;;1.77;53.31;100008.06;1704861;82;20163;-81
2022/01/08 02:51:24;;;;;;;;;;;;;;;2.00;52.88;100010.03;1707609;82;20144;-78
2022/01/08 02:53:50;;;;;;;;;;;;;;;2.10;52.69;100014.51;1704476;83;21118;-78
2022/01/08 02:56:16;;;;;;;;;;;;;;;2.10;52.58;100011.08;1707555;82;20124;-82
2022/01/08 02:58:42;;;;;;;;;;;;;;;2.05;52.58;100019.66;1702660;81;20163;-84
2022/01/08 03:01:07;;;;;;;;;;;;;;;2.03;52.81;100017.16;1703925;83;20171;-77
2022/01/08 03:03:33;;;;;;;;;;;;;;;1.99;52.76;100015.72;1704168;83;20135;-79
2022/01/08 03:05:58;;;;;;;;;;;;;;;1.95;52.84;100011.17;1706255;82;21017;-78
2022/01/08 03:08:26;;;;;;;;;;;;;;;1.98;52.96;100010.96;1703129;82;20148;-79
2022/01/08 03:10:52;;;;;;;;;;;;;;;1.96;53.02;100000.30;1699440;83;20618;-77
2022/01/08 03:13:17;;;;;;;;;;;;;;;1.98;52.96;99994.52;1704101;82;20174;-80
2022/01/08 03:15:43;;;;;;;;;;;;;;;1.92;53.11;99997.53;1704768;82;20176;-78
2022/01/08 03:18:09;;;;;;;;;;;;;;;1.90;53.23;99994.21;1702971;83;21206;-79
2022/01/08 03:20:43;;;;;;;;;;;;;;;1.88;53.26;99992.16;1708452;81;20573;-77
2022/01/08 03:23:04;;;;;;;;;;;;;;;1.66;53.63;99991.48;1700454;82;20146;-78
2022/01/08 03:25:30;;;;;;;;;;;;;;;1.70;53.91;99989.05;1704496;82;20273;-81
2022/01/08 03:27:56;;;;;;;;;;;;;;;1.77;53.95;99989.83;1703247;83;20230;-77
2022/01/08 03:30:22;;;;;;;;;;;;;;;1.62;54.00;99992.16;1707314;82;21123;-83
2022/01/08 03:32:48;;;;;;;;;;;;;;;1.66;54.04;99992.30;1702657;83;20175;-77
2022/01/08 03:35:14;;;;;;;;;;;;;;;1.31;54.50;99987.69;1702783;83;20120;-79
2022/01/08 03:37:39;;;;;;;;;;;;;;;1.21;54.97;99976.20;1700020;83;20131;-77
2022/01/08 03:40:06;;;;;;;;;;;;;;;1.27;55.42;99978.88;1702937;83;20123;-78
2022/01/08 03:42:31;;;;;;;;;;;;;;;1.35;55.24;99976.16;1701329;83;21247;-77
2022/01/08 03:44:57;;;;;;;;;;;;;;;1.27;55.37;99982.31;1700818;83;20476;-83
2022/01/08 03:49:56;;;;;;;;;;;;;;;1.61;54.62;99982.68;1703190;83;20175;-78
2022/01/08 03:52:22;;;;;;;;;;;;;;;1.27;55.00;99974.98;1704519;83;20144;-80
2022/01/08 03:54:47;;;;;;;;;;;;;;;1.30;54.80;99984.70;1701187;83;21167;-82
2022/01/08 03:57:13;;;;;;;;;;;;;;;1.27;54.87;99986.21;1703850;82;20622;-79
2022/01/08 03:59:39;;;;;;;;;;;;;;;1.37;54.73;99976.88;1702679;83;20140;-82
2022/01/08 04:02:04;;;;;;;;;;;;;;;1.32;54.93;99976.36;1701068;82;20416;-77
2022/01/08 04:04:30;;;;;;;;;;;;;;;1.41;54.80;99977.05;1702084;82;20183;-78
2022/01/08 04:06:55;;;;;;;;;;;;;;;1.40;54.83;99974.07;1702502;83;21165;-81
2022/01/08 04:09:21;;;;;;;;;;;;;;;1.34;54.81;99967.97;1701130;83;20158;-79
2022/01/08 04:11:46;;;;;;;;;;;;;;;1.30;54.91;99970.40;1701406;83;20156;-78
2022/01/08 04:14:14;;;;;;;;;;;;;;;1.29;54.92;99971.36;1702915;83;20136;-78
2022/01/08 04:16:43;;;;;;;;;;;;;;;1.14;55.26;99965.38;1703665;82;20555;-79
2022/01/08 04:19:07;;;;;;;;;;;;;;;1.20;55.14;99970.66;1698638;83;20171;-78
2022/01/08 04:21:59;;;;;;;;;;;;;;;1.34;55.11;99961.47;1701310;83;20789;-81
2022/01/08 04:24:03;;;;;;;;;;;;;;;1.48;54.41;99959.73;1697814;83;20214;-77
2022/01/08 04:26:28;;;;;;;;;;;;;;;1.00;55.39;99955.87;1705371;82;20134;-83
2022/01/08 04:28:54;;;;;;;;;;;;;;;0.75;55.85;99961.83;1702588;83;20222;-78
2022/01/08 04:31:22;;;;;;;;;;;;;;;0.91;55.90;99955.65;1703626;83;21080;-77
2022/01/08 04:33:48;;;;;;;;;;;;;;;0.95;55.75;99958.39;1704573;82;20530;-78
2022/01/08 04:36:14;;;;;;;;;;;;;;;0.56;56.52;99950.48;1706513;82;20119;-77
2022/01/08 04:38:39;;;;;;;;;;;;;;;0.53;56.77;99947.59;1703463;83;20229;-77
2022/01/08 04:41:05;;;;;;;;;;;;;;;0.59;56.83;99945.53;1702751;83;20401;-78
2022/01/08 04:43:31;;;;;;;;;;;;;;;0.41;57.07;99950.14;1700657;82;21175;-78
2022/01/08 04:45:56;;;;;;;;;;;;;;;0.76;56.60;99941.86;1703197;83;20154;-82
2022/01/08 04:48:22;;;;;;;;;;;;;;;0.60;56.46;99942.02;1696298;83;20170;-78
2022/01/08 04:50:48;;;;;;;;;;;;;;;0.43;56.87;99932.69;1700095;83;20697;-78
2022/01/08 04:53:13;;;;;;;;;;;;;;;0.64;56.39;99936.52;1702011;82;20123;-80
2022/01/08 04:55:39;;;;;;;;;;;;;;;0.84;55.98;99935.25;1705521;82;21065;-80
2022/01/08 04:58:05;;;;;;;;;;;;;;;0.74;56.00;99938.06;1700947;83;20537;-84
2022/01/08 05:00:31;;;;;;;;;;;;;;;0.41;56.51;99932.78;1697531;83;20180;-78
2022/01/08 05:02:56;;;;;;;;;;;;;;;0.35;56.88;99931.87;1705930;81;20272;-78
2022/01/08 05:05:22;;;;;;;;;;;;;;;0.51;56.52;99936.48;1700769;83;20126;-85
2022/01/08 05:07:48;;;;;;;;;;;;;;;0.28;57.14;99935.32;1705407;81;21056;-79
2022/01/08 05:10:14;;;;;;;;;;;;;;;0.37;57.01;99932.59;1700315;83;20194;-83
2022/01/08 05:12:39;;;;;;;;;;;;;;;0.41;56.58;99933.26;1702623;83;20217;-78
2022/01/08 05:15:06;;;;;;;;;;;;;;;0.51;56.60;99931.73;1703585;82;20189;-79
2022/01/08 05:17:35;;;;;;;;;;;;;;;0.31;57.06;99929.94;1696753;83;20179;-84
2022/01/08 05:20:02;;;;;;;;;;;;;;;0.48;56.57;99928.02;1704199;81;20120;-77
2022/01/08 05:22:29;;;;;;;;;;;;;;;0.29;56.55;99935.67;1699478;83;20167;-80
2022/01/08 05:24:54;;;;;;;;;;;;;;;0.05;57.40;99921.61;1703050;83;20156;-78
2022/01/08 05:27:20;;;;;;;;;;;;;;;0.22;57.75;99920.13;1705298;81;20228;-77
2022/01/08 05:29:47;;;;;;;;;;;;;;;-0.08;58.31;99923.69;1699206;83;20717;-78
2022/01/08 05:32:18;;;;;;;;;;;;;;;0.12;58.11;99924.20;1707154;82;22057;-82
2022/01/08 05:34:46;;;;;;;;;;;;;;;-0.07;58.30;99925.33;1704368;81;20193;-76
2022/01/08 05:37:12;;;;;;;;;;;;;;;-0.08;58.45;99921.53;1697689;83;20143;-76
2022/01/08 05:39:37;;;;;;;;;;;;;;;0.23;57.81;99917.87;1706725;83;20683;-78
2022/01/08 05:42:03;;;;;;;;;;;;;;;0.31;57.54;99922.14;1702003;81;20162;-77
2022/01/08 05:44:29;;;;;;;;;;;;;;;0.73;56.52;99917.36;1707554;81;21134;-77
2022/01/08 05:46:54;;;;;;;;;;;;;;;0.69;56.28;99920.16;1701074;83;20200;-79
2022/01/08 05:49:20;;;;;;;;;;;;;;;0.69;56.28;99921.46;1700693;83;20142;-80
2022/01/08 05:51:46;;;;;;;;;;;;;;;0.46;56.67;99922.10;1706136;83;20127;-77
2022/01/08 05:54:11;;;;;;;;;;;;;;;0.61;56.39;99928.10;1700839;83;20436;-78
2022/01/08 05:56:37;;;;;;;;;;;;;;;0.22;57.40;99922.72;1691020;83;21356;-76
2022/01/08 05:59:02;;;;;;;;;;;;;;;-0.11;58.16;99934.25;1684601;83;20198;-80
2022/01/08 06:01:28;;;;;;;;;;;;;;;-0.06;58.20;99933.50;1684681;83;20186;-77
2022/01/08 06:03:54;;;;;;;;;;;;;;;-0.31;58.83;99933.30;1690001;83;20154;-77
2022/01/08 06:06:19;;;;;;;;;;;;;;;-0.38;59.00;99931.55;1686801;83;20163;-78
2022/01/08 06:08:45;;;;;;;;;;;;;;;-0.39;59.11;99930.72;1682163;83;21177;-77
2022/01/08 06:11:10;;;;;;;;;;;;;;;-0.28;59.02;99929.23;1689746;83;20486;-80
2022/01/08 06:13:36;;;;;;;;;;;;;;;-0.33;59.24;99928.67;1679842;83;20159;-77
2022/01/08 06:16:02;;;;;;;;;;;;;;;-0.40;59.41;99929.05;1684301;83;20135;-76
2022/01/08 06:18:27;;;;;;;;;;;;;;;-0.41;59.35;99931.73;1681999;83;20357;-76
2022/01/08 06:20:55;;;;;;;;;;;;;;;-0.30;59.15;99928.49;1681269;85;21125;-81
2022/01/08 06:23:20;;;;;;;;;;;;;;;-0.25;59.12;99936.83;1682806;83;20135;-77
2022/01/08 06:25:46;;;;;;;;;;;;;;;-0.46;59.26;99924.22;1683846;83;20139;-77
2022/01/08 06:28:12;;;;;;;;;;;;;;;-0.88;60.69;99919.34;1679753;85;20766;-77
2022/01/08 06:30:37;;;;;;;;;;;;;;;-0.31;59.31;99937.19;1678987;85;20159;-78
2022/01/08 06:33:03;;;;;;;;;;;;;;;-0.32;59.18;99932.95;1685235;82;21086;-77
2022/01/08 06:35:29;;;;;;;;;;;;;;;-0.28;59.15;99930.52;1682616;83;20134;-78
2022/01/08 06:37:55;;;;;;;;;;;;;;;-0.44;59.39;99931.44;1682953;82;20505;-77
2022/01/08 06:40:21;;;;;;;;;;;;;;;-0.43;59.34;99926.63;1685116;82;20174;-81
2022/01/08 06:42:46;;;;;;;;;;;;;;;-0.40;59.25;99929.05;1684810;83;20158;-77
2022/01/08 06:45:12;;;;;;;;;;;;;;;-0.52;59.36;99929.77;1680962;84;21139;-76
2022/01/08 06:47:37;;;;;;;;;;;;;;;-0.55;59.57;99929.95;1685112;83;20147;-78
2022/01/08 06:50:04;;;;;;;;;;;;;;;-0.85;59.84;99926.94;1683254;83;20185;-77
2022/01/08 06:52:29;;;;;;;;;;;;;;;-0.68;60.23;99928.98;1681404;83;21620;-77
2022/01/08 06:54:55;;;;;;;;;;;;;;;-0.82;60.24;99925.46;1655115;85;20138;-77
2022/01/08 06:57:21;;;;;;;;;;;;;;;-0.77;60.31;99928.61;1698788;83;21162;-76
2022/01/08 06:59:46;;;;;;;;;;;;;;;-0.69;60.28;99932.53;1696915;83;20166;-77
2022/01/08 07:02:12;;;;;;;;;;;;;;;-0.76;60.26;99922.52;1702365;83;20198;-81
2022/01/08 07:04:37;;;;;;;;;;;;;;;-0.89;60.70;99918.13;1701650;83;20126;-76
2022/01/08 07:07:03;;;;;;;;;;;;;;;-0.88;61.04;99922.40;1702573;83;20453;-76
2022/01/08 07:09:28;;;;;;;;;;;;;;;-0.58;60.15;99922.35;1700530;83;21156;-77
2022/01/08 07:11:54;;;;;;;;;;;;;;;-0.44;59.98;99924.13;1705670;81;20465;-78
2022/01/08 07:14:20;;;;;;;;;;;;;;;-0.51;59.98;99927.56;1696533;83;20162;-77
2022/01/08 07:16:48;;;;;;;;;;;;;;;-0.41;59.89;99922.17;1706862;83;20138;-77
2022/01/08 07:19:13;;;;;;;;;;;;;;;-0.46;59.86;99915.14;1698039;83;20444;-77
2022/01/08 07:21:39;;;;;;;;;;;;;;;-0.29;59.21;99914.61;1703563;83;20995;-76
2022/01/08 07:24:05;;;;;;;;;;;;;;;-0.08;59.59;99910.70;1704098;83;20219;-77
2022/01/08 07:26:30;;;;;;;;;;;;;;;0.05;58.76;99909.92;1700437;83;20176;-75
2022/01/08 07:28:56;;;;;;;;;;;;;;;-0.66;60.31;99909.02;1703191;81;20148;-75
2022/01/08 07:31:22;;;;;;;;;;;;;;;-0.57;60.50;99914.95;1699389;83;20150;-78
2022/01/08 07:33:49;;;;;;;;;;;;;;;-0.70;60.56;99920.48;1701667;83;21025;-78
2022/01/08 07:36:17;;;;;;;;;;;;;;;-0.67;60.51;99909.45;1705009;83;20102;-79
2022/01/08 07:38:43;;;;;;;;;;;;;;;-0.18;59.49;99912.19;1702908;83;20218;-76
2022/01/08 07:41:09;;;;;;;;;;;;;;;-0.76;59.96;99910.84;1701185;83;20162;-79
2022/01/08 07:43:34;;;;;;;;;;;;;;;-0.82;60.25;99900.01;1699664;81;20147;-78
2022/01/08 07:46:00;;;;;;;;;;;;;;;-0.83;60.46;99901.75;1705368;83;21062;-78
2022/01/08 07:48:25;;;;;;;;;;;;;;;-0.49;60.07;99899.76;1697260;83;20141;-77
2022/01/08 07:50:51;;;;;;;;;;;;;;;-0.14;59.36;99898.55;1699649;83;20166;-78
2022/01/08 07:53:17;;;;;;;;;;;;;;;-0.13;58.84;99901.52;1699677;83;20241;-75
2022/01/08 07:55:42;;;;;;;;;;;;;;;-0.51;59.83;99897.73;1705038;81;20211;-79
2022/01/08 07:58:08;;;;;;;;;;;;;;;-0.08;59.14;99905.52;1695747;83;21106;-79
2022/01/08 08:00:33;;;;;;;;;;;;;;;0.26;58.05;99890.41;1698425;82;20581;-77
2022/01/08 08:02:59;;;;;;;;;;;;;;;-0.01;58.68;99903.37;1696171;83;20146;-77
2022/01/08 08:05:24;;;;;;;;;;;;;;;-0.11;58.85;99900.52;1698312;83;20163;-78
2022/01/08 08:07:50;;;;;;;;;;;;;;;0.26;58.29;99890.41;1699253;83;20572;-76
2022/01/08 08:10:19;;;;;;;;;;;;;;;0.32;58.00;99895.22;1693658;83;21124;-76
2022/01/08 08:12:45;;;;;;;;;;;;;;;0.43;58.00;99893.72;1695421;83;20194;-75
2022/01/08 08:15:15;;;;;;;;;;;;;;;0.68;57.28;99888.63;1694055;83;20126;-75
2022/01/08 08:17:42;;;;;;;;;;;;;;;1.05;56.67;99891.39;1693274;84;20231;-77
2022/01/08 08:20:08;;;;;;;;;;;;;;;0.94;55.95;99886.08;1702519;83;20742;-77
2022/01/08 08:22:34;;;;;;;;;;;;;;;0.83;56.29;99891.98;1699536;83;21818;-77
2022/01/08 08:24:59;;;;;;;;;;;;;;;0.72;56.66;99897.05;1698600;83;20126;-77
2022/01/08 08:27:25;;;;;;;;;;;;;;;0.47;57.17;99892.60;1696715;83;20162;-78
2022/01/08 08:29:51;;;;;;;;;;;;;;;0.29;57.54;99892.81;1697025;81;20221;-76
2022/01/08 08:32:16;;;;;;;;;;;;;;;0.29;57.34;99889.40;1697005;83;21141;-76
2022/01/08 08:34:42;;;;;;;;;;;;;;;0.49;57.27;99885.53;1696112;83;21985;-79
2022/01/08 08:37:07;;;;;;;;;;;;;;;1.08;56.41;99884.69;1695337;83;20142;-76
2022/01/08 08:39:33;;;;;;;;;;;;;;;0.65;56.97;99881.03;1695392;83;20162;-76
2022/01/08 08:41:58;;;;;;;;;;;;;;;0.59;57.18;99886.63;1694085;83;20127;-76
2022/01/08 08:44:24;;;;;;;;;;;;;;;0.58;56.93;99890.14;1693333;84;20459;-77
2022/01/08 08:46:50;;;;;;;;;;;;;;;0.61;57.05;99893.02;1697983;83;21159;-77
2022/01/08 08:49:15;;;;;;;;;;;;;;;0.86;56.07;99892.25;1696958;83;20618;-80
2022/01/08 08:51:41;;;;;;;;;;;;;;;0.50;57.04;99888.03;1696581;83;20216;-79
2022/01/08 08:54:06;;;;;;;;;;;;;;;0.43;57.27;99877.66;1700281;83;21220;-75
2022/01/08 08:56:32;;;;;;;;;;;;;;;0.40;57.14;99872.66;1695770;83;20131;-77
2022/01/08 08:58:57;;;;;;;;;;;;;;;0.39;57.70;99870.16;1705622;83;21183;-78
2022/01/08 09:01:23;;;;;;;;;;;;;;;0.59;57.01;99869.73;1701862;83;20130;-77
2022/01/08 09:03:49;;;;;;;;;;;;;;;0.74;56.79;99878.76;1705869;83;20472;-77
2022/01/08 09:06:15;;;;;;;;;;;;;;;0.74;56.90;99886.55;1702996;83;20428;-77
2022/01/08 09:08:40;;;;;;;;;;;;;;;0.79;56.63;99875.38;1712697;83;20192;-76
2022/01/08 09:11:06;;;;;;;;;;;;;;;1.68;54.94;99874.62;1707587;81;21118;-76
2022/01/08 09:13:31;;;;;;;;;;;;;;;1.31;54.36;99874.53;1692655;83;20538;-77
2022/01/08 09:15:57;;;;;;;;;;;;;;;1.10;55.86;99875.97;1698990;83;20168;-77
2022/01/08 09:18:22;;;;;;;;;;;;;;;0.84;55.39;99883.70;1704589;81;20203;-78
2022/01/08 09:20:49;;;;;;;;;;;;;;;1.17;55.72;99882.44;1698616;83;20127;-77
2022/01/08 09:23:15;;;;;;;;;;;;;;;1.36;55.44;99881.55;1715373;81;21127;-77
2022/01/08 09:25:40;;;;;;;;;;;;;;;1.26;55.21;99872.72;1697453;83;20976;-80
2022/01/08 09:28:06;;;;;;;;;;;;;;;1.10;55.94;99869.46;1696595;83;20145;-76
2022/01/08 09:30:31;;;;;;;;;;;;;;;1.33;55.80;99862.23;1704181;83;20520;-79
2022/01/08 09:32:58;;;;;;;;;;;;;;;1.01;55.78;99863.95;1695391;83;20150;-81
2022/01/08 09:35:25;;;;;;;;;;;;;;;1.15;55.89;99859.58;1703392;83;21147;-77
2022/01/08 09:37:51;;;;;;;;;;;;;;;1.43;55.62;99859.39;1711415;83;20079;-79
2022/01/08 09:40:17;;;;;;;;;;;;;;;1.50;55.25;99858.97;1705977;81;20149;-78
2022/01/08 09:42:44;;;;;;;;;;;;;;;1.71;54.80;99852.73;1710015;83;20210;-76
2022/01/08 09:45:09;;;;;;;;;;;;;;;1.49;55.04;99849.48;1708190;83;20749;-77
2022/01/08 09:47:35;;;;;;;;;;;;;;;1.98;54.86;99845.59;1703567;82;21122;-76
2022/01/08 09:50:02;;;;;;;;;;;;;;;2.29;54.25;99839.50;1707763;83;20123;-76
2022/01/08 09:52:30;;;;;;;;;;;;;;;1.82;54.77;99848.08;1709183;82;20154;-78
2022/01/08 09:54:56;;;;;;;;;;;;;;;1.83;53.65;99850.58;1701843;83;20592;-77
2022/01/08 09:57:21;;;;;;;;;;;;;;;2.09;53.65;99846.14;1704402;83;20465;-78
2022/01/08 09:59:47;;;;;;;;;;;;;;;1.89;54.92;99856.66;1701428;83;21121;-78
2022/01/08 10:02:13;;;;;;;;;;;;;;;1.81;54.82;99859.45;1705198;83;20112;-78
2022/01/08 10:04:40;;;;;;;;;;;;;;;1.42;55.24;99857.71;1701965;83;20449;-77
2022/01/08 10:07:24;;;;;;;;;;;;;;;1.21;55.84;99846.16;1704415;83;20758;-80
2022/01/08 10:10:00;;;;;;;;;;;;;;;1.50;55.67;99848.56;1702496;83;20202;-76
2022/01/08 10:12:42;;;;;;;;;;;;;;;1.53;55.72;99841.37;1700360;83;21057;-77
2022/01/08 10:17:52;;;;;;;;;;;;;;;1.69;55.80;99841.13;1701782;83;21164;-75
2022/01/08 10:20:30;;;;;;;;;;;;;;;1.84;55.21;99845.74;1703201;82;20653;-78
2022/01/08 10:23:17;;;;;;;;;;;;;;;1.98;55.17;99848.68;1708233;82;20252;-77
2022/01/08 10:26:03;;;;;;;;;;;;;;;1.95;54.69;99846.29;1704694;82;21263;-77
2022/01/08 10:28:43;;;;;;;;;;;;;;;1.86;55.51;99843.03;1707947;83;20153;-76
2022/01/08 10:31:15;;;;;;;;;;;;;;;1.60;55.52;99841.77;1698382;82;20160;-76
2022/01/08 10:33:42;;;;;;;;;;;;;;;1.57;55.14;99838.92;1708363;81;20363;-79
2022/01/08 10:36:08;;;;;;;;;;;;;;;1.70;55.53;99837.59;1703348;83;20202;-76
2022/01/08 10:38:33;;;;;;;;;;;;;;;1.93;55.41;99828.65;1709015;83;21161;-75
2022/01/08 10:41:00;;;;;;;;;;;;;;;1.83;55.42;99827.14;1707751;83;20167;-78
2022/01/08 10:43:27;;;;;;;;;;;;;;;2.00;54.93;99811.63;1700832;82;20534;-79
2022/01/08 10:45:55;;;;;;;;;;;;;;;2.07;55.32;99808.96;1681235;83;38808;-75
2022/01/08 10:48:28;;;;;;;;;;;;;;;1.91;55.26;99816.19;1706968;81;20204;-75
2022/01/08 10:50:55;;;;;;;;;;;;;;;1.58;55.90;99812.42;1703703;83;21092;-75
2022/01/08 10:53:20;;;;;;;;;;;;;;;1.76;55.75;99804.63;1695756;82;21409;-81
2022/01/08 10:55:46;;;;;;;;;;;;;;;1.95;56.07;99803.33;1695800;83;20215;-76
2022/01/08 10:58:12;;;;;;;;;;;;;;;2.18;56.15;99797.77;1700028;83;20160;-76
2022/01/08 11:00:37;;;;;;;;;;;;;;;2.07;55.64;99788.13;1709233;83;20473;-76
2022/01/08 11:03:03;;;;;;;;;;;;;;;2.30;55.40;99783.85;1705081;83;21210;-79
2022/01/08 11:05:29;;;;;;;;;;;;;;;2.43;55.28;99779.86;1698947;83;20977;-77
2022/01/08 11:07:56;;;;;;;;;;;;;;;2.61;55.27;99775.53;1698660;83;20191;-77
2022/01/08 11:10:23;;;;;;;;;;;;;;;2.75;55.10;99775.34;1662556;83;20194;-81
2022/01/08 11:12:49;;;;;;;;;;;;;;;2.57;54.78;99779.33;1703120;83;20254;-80
2022/01/08 11:17:52;;;;;;;;;;;;;;;2.57;54.80;99785.84;1703278;83;20163;-78
2022/01/08 11:20:22;;;;;;;;;;;;;;;2.62;54.58;99787.63;1702866;83;20218;-77
2022/01/08 11:22:50;;;;;;;;;;;;;;;2.53;54.85;99789.13;1712204;82;20177;-76
2022/01/08 11:25:21;;;;;;;;;;;;;;;2.78;54.87;99781.64;1692130;82;20186;-77
2022/01/08 11:28:11;;;;;;;;;;;;;;;2.76;55.11;99776.98;1700226;81;21335;-79
2022/01/08 11:30:38;;;;;;;;;;;;;;;2.88;54.79;99781.28;1701674;83;20160;-75
2022/01/08 11:33:14;;;;;;;;;;;;;;;3.02;55.07;99772.90;1702857;83;20242;-78
2022/01/08 11:35:37;;;;;;;;;;;;;;;2.87;55.34;99773.58;1701375;83;20112;-81
2022/01/08 11:38:07;;;;;;;;;;;;;;;2.84;55.21;99774.66;1701413;81;20180;-78
2022/01/08 11:40:36;;;;;;;;;;;;;;;2.59;55.93;99772.22;1698612;83;21182;-77
2022/01/08 11:43:02;;;;;;;;;;;;;;;2.83;55.78;99770.38;1697328;83;20559;-78
2022/01/08 11:45:34;;;;;;;;;;;;;;;2.72;55.60;99772.97;1706033;81;20226;-79
2022/01/08 11:48:01;;;;;;;;;;;;;;;2.79;56.10;99765.03;1703743;83;20218;-77
2022/01/08 11:50:28;;;;;;;;;;;;;;;2.92;55.83;99763.65;1689543;83;20163;-76
2022/01/08 11:53:15;;;;;;;;;;;;;;;2.97;55.38;99771.13;1702419;81;21848;-76
2022/01/08 11:55:42;;;;;;;;;;;;;;;3.02;55.64;99771.59;1698546;82;20195;-78
2022/01/08 11:58:17;;;;;;;;;;;;;;;2.75;56.26;99777.95;1697943;83;20497;-79
2022/01/08 12:00:51;;;;;;;;;;;;;;;2.96;56.38;99779.41;1705413;81;21946;-78
2022/01/08 12:03:37;;;;;;;;;;;;;;;3.01;55.75;99782.97;1709084;81;20226;-81
2022/01/08 12:06:27;;;;;;;;;;;;;;;2.75;56.64;99780.56;1710825;83;21098;-78
2022/01/08 12:09:08;;;;;;;;;;;;;;;2.91;56.59;99782.84;1705676;83;20128;-79
2022/01/08 12:11:54;;;;;;;;;;;;;;;2.65;56.46;99783.48;1701604;83;20226;-79
2022/01/08 12:14:23;;;;;;;;;;;;;;;2.58;56.72;99785.73;1696378;83;20170;-77
2022/01/08 12:16:51;;;;;;;;;;;;;;;2.75;57.00;99776.66;1703785;83;20516;-80
2022/01/08 12:19:36;;;;;;;;;;;;;;;3.02;56.81;99776.81;1703700;83;21222;-78
2022/01/08 12:22:24;;;;;;;;;;;;;;;3.15;56.20;99768.38;1699698;83;20452;-80
2022/01/08 12:24:53;;;;;;;;;;;;;;;2.82;56.58;99788.75;1703063;83;20250;-80
2022/01/08 12:27:22;;;;;;;;;;;;;;;3.15;56.44;99785.34;1705370;83;20543;-79
2022/01/08 12:29:48;;;;;;;;;;;;;;;3.06;56.49;99778.22;1702679;83;20169;-77
2022/01/08 12:32:37;;;;;;;;;;;;;;;2.68;57.23;99776.27;1704396;83;20906;-78
2022/01/08 12:35:06;;;;;;;;;;;;;;;3.05;56.79;99776.58;1701319;83;20120;-80
2022/01/08 12:37:39;;;;;;;;;;;;;;;3.16;56.25;99766.63;1700295;83;20216;-78
2022/01/08 12:40:07;;;;;;;;;;;;;;;3.20;56.54;99768.88;1698018;83;20227;-81
2022/01/08 12:42:34;;;;;;;;;;;;;;;2.77;57.17;99759.11;1706602;83;20210;-81
2022/01/08 12:45:11;;;;;;;;;;;;;;;3.18;56.91;99761.62;1703876;83;21150;-76
2022/01/08 12:48:07;;;;;;;;;;;;;;;3.21;56.99;99764.48;1702439;83;20922;-78
2022/01/08 12:50:45;;;;;;;;;;;;;;;3.32;56.93;99758.44;1699789;83;20259;-78
2022/01/08 12:53:17;;;;;;;;;;;;;;;3.30;56.75;99757.25;1700341;83;20262;-78
2022/01/08 12:55:55;;;;;;;;;;;;;;;3.23;56.86;99754.30;1704927;81;20170;-77
2022/01/08 12:58:38;;;;;;;;;;;;;;;3.15;57.39;99753.22;1697374;81;21108;-80
2022/01/08 13:01:07;;;;;;;;;;;;;;;3.41;57.04;99756.41;1685103;84;20189;-77
2022/01/08 13:03:38;;;;;;;;;;;;;;;3.26;57.08;99761.52;1680686;84;21011;-78
2022/01/08 13:06:15;;;;;;;;;;;;;;;2.96;57.79;99755.11;1680919;84;20188;-76
2022/01/08 13:08:42;;;;;;;;;;;;;;;3.10;57.91;99752.75;1687581;84;20332;-75
2022/01/08 13:11:09;;;;;;;;;;;;;;;3.29;57.86;99757.37;1689185;84;21087;-77
2022/01/08 13:13:44;;;;;;;;;;;;;;;3.41;57.47;99748.58;1685316;84;20159;-76
2022/01/08 13:16:29;;;;;;;;;;;;;;;3.38;57.62;99750.13;1684324;84;20199;-78
2022/01/08 13:18:57;;;;;;;;;;;;;;;3.42;57.64;99745.03;1682309;84;20250;-76
2022/01/08 13:21:24;;;;;;;;;;;;;;;3.47;57.87;99745.50;1685373;84;20140;-80